Main page
METAR-TAF:

METAR-TAF

Airports :

Cranfield Airport

Cranfield, England

latitude: 52-04N, longitude: 000-37W, elevation: 111 m

Current weather observation

The report was made 6 hours and 59 minutes ago, at 16:20 UTC
Wind 12 kt from the East
Temperature 22°C
Humidity 31%
Pressure 1002 hPa
Visibility 10 km or more
no clouds below 1500 m and no cumulonimbus

METAR: EGTC 221620Z 10012KT CAVOK 22/04 Q1002

Time: 00:19 (23:19 UTC)

Forecast

The report was made 9 hours and 20 minutes ago, at 13:59 UTC
Forecast valid from 22 at 15 UTC to 22 at 24 UTC
Wind 7 kt from the East
Visibility 10 km or more
no clouds below 1500 m and no cumulonimbus
Temporary
from 22 at 15 UTC to 22 at 18 UTC
Visibility: 9000 m

TAF: EGTC 221359Z 2215/2224 09007KT CAVOK TEMPO 2215/2218 9000

Weather observations and forecasts of more than 4000 airports (METAR and TAF reports).

The available stations are represented by yellow and red dots on the map.

Hover mouse over dot to see the name of the station.

Then click to see weather observations and forecasts.

To change the map : click on the green buttons with a black cross to zoom in, on the green button with a dash to zoom out, or on the green arrows for adjacent maps.


METAR-TAF: